Time;durP1;ratioP1;P1;durP2;ratioP2;P2;SDS_P1;SDS_P2;PMS_P1;PMS_P2;Temp;Humidity;BMP_temperature;BMP_pressure;BME280_temperature;BME280_humidity;BME280_pressure;Samples;Min_cycle;Max_cycle;Signal;HPM_P1;HPM_P2
2021/01/19 08:52:03;;;;;;;4.27;0.80;;;6.60;99.90;;;;;;2395993;22;20230;-72
2021/01/19 08:54:31;;;;;;;1.27;1.00;;;6.60;99.90;;;;;;5068982;28;20662;-76
2021/01/19 08:56:57;;;;;;;2.93;1.10;;;6.70;99.90;;;;;;5073469;28;20203;-78
2021/01/19 08:59:23;;;;;;;1.73;0.80;;;6.70;99.90;;;;;;5073621;28;20231;-76
2021/01/19 09:01:50;;;;;;;2.17;1.00;;;6.80;99.90;;;;;;5072516;28;20218;-74
2021/01/19 09:04:23;;;;;;;1.00;0.70;;;6.80;99.90;;;;;;5072866;28;20676;-74
2021/01/19 09:06:50;;;;;;;3.03;0.70;;;6.90;99.90;;;;;;5073664;28;20211;-75
2021/01/19 09:09:21;;;;;;;3.43;0.87;;;6.90;99.90;;;;;;5072938;28;20231;-75
2021/01/19 09:11:47;;;;;;;4.00;0.93;;;7.00;99.90;;;;;;5073682;28;20210;-77
2021/01/19 09:14:13;;;;;;;4.00;0.83;;;7.10;99.90;;;;;;5073137;28;20566;-75
2021/01/19 09:16:40;;;;;;;2.53;0.70;;;7.10;99.90;;;;;;5072030;28;20290;-78
2021/01/19 09:19:08;;;;;;;1.00;0.60;;;7.20;99.90;;;;;;5071939;28;20250;-73
2021/01/19 09:21:37;;;;;;;2.53;0.77;;;7.30;99.90;;;;;;5058128;28;20207;-74
2021/01/19 09:24:10;;;;;;;1.47;0.63;;;7.30;99.90;;;;;;5069705;28;20207;-76
2021/01/19 09:26:46;;;;;;;1.50;0.97;;;7.40;99.90;;;;;;5050984;28;20208;-80
2021/01/19 09:29:12;;;;;;;1.13;0.60;;;7.40;99.90;;;;;;5055999;28;20283;-80
2021/01/19 09:31:38;;;;;;;1.60;0.87;;;7.40;99.90;;;;;;5071680;28;20218;-78
2021/01/19 09:34:05;;;;;;;2.13;0.80;;;7.50;99.90;;;;;;5071689;28;20211;-81
2021/01/19 09:36:37;;;;;;;0.53;0.50;;;7.50;99.90;;;;;;5071645;28;20669;-82
2021/01/19 09:39:03;;;;;;;1.10;0.60;;;7.60;99.90;;;;;;5070923;28;20701;-82
2021/01/19 09:41:30;;;;;;;1.40;0.60;;;7.60;99.90;;;;;;5072948;28;20211;-78
2021/01/19 09:43:58;;;;;;;0.80;0.60;;;7.70;99.90;;;;;;5072225;28;20207;-77
2021/01/19 09:46:27;;;;;;;0.90;0.60;;;7.70;99.90;;;;;;5061060;28;20208;-75
2021/01/19 09:48:56;;;;;;;0.63;0.50;;;7.80;99.90;;;;;;5051522;28;20759;-74
2021/01/19 09:51:25;;;;;;;1.97;0.73;;;7.80;99.90;;;;;;5051115;28;20208;-76
2021/01/19 09:53:54;;;;;;;3.67;0.80;;;7.90;99.90;;;;;;5052351;28;20212;-74
2021/01/19 09:56:20;;;;;;;0.80;0.53;;;7.90;99.90;;;;;;5072746;28;20211;-77
2021/01/19 09:58:46;;;;;;;2.40;0.50;;;7.90;99.90;;;;;;5072340;28;20234;-77
2021/01/19 10:01:22;;;;;;;1.93;0.70;;;7.90;99.90;;;;;;5072313;28;20229;-74
2021/01/19 10:03:49;;;;;;;4.83;0.80;;;8.00;99.90;;;;;;5071990;28;20252;-74
2021/01/19 10:06:19;;;;;;;0.70;0.50;;;8.00;99.90;;;;;;5072334;28;20301;-75
2021/01/19 10:08:50;;;;;;;0.90;0.60;;;8.10;99.90;;;;;;5071825;28;20231;-77
2021/01/19 10:11:27;;;;;;;1.50;0.73;;;8.20;99.90;;;;;;5072941;28;20218;-78
2021/01/19 10:13:54;;;;;;;0.70;0.43;;;8.20;99.90;;;;;;5069878;28;20791;-75
2021/01/19 10:16:26;;;;;;;3.30;0.60;;;8.30;99.90;;;;;;5071650;28;20218;-77
2021/01/19 10:18:53;;;;;;;0.80;0.57;;;8.30;99.90;;;;;;5072553;28;20235;-78
2021/01/19 10:21:28;;;;;;;1.00;0.50;;;8.40;99.90;;;;;;5070019;28;20212;-78
2021/01/19 10:23:54;;;;;;;1.27;0.60;;;8.50;99.90;;;;;;5072141;28;20264;-77
2021/01/19 10:26:27;;;;;;;0.67;0.43;;;8.50;99.90;;;;;;5072247;28;20207;-77
2021/01/19 10:28:56;;;;;;;0.73;0.37;;;8.60;99.90;;;;;;5074691;28;20514;-71
2021/01/19 10:31:24;;;;;;;1.97;1.17;;;8.60;99.90;;;;;;5073810;28;20203;-73
2021/01/19 10:34:04;;;;;;;1.00;0.47;;;8.60;99.90;;;;;;5075236;28;20231;-72
2021/01/19 10:36:31;;;;;;;0.50;0.40;;;8.60;99.90;;;;;;5075365;28;20234;-72
2021/01/19 10:39:06;;;;;;;1.53;0.60;;;8.60;99.90;;;;;;5076225;28;20288;-72
2021/01/19 10:41:33;;;;;;;1.00;0.57;;;8.60;99.90;;;;;;5076473;28;20203;-71
2021/01/19 10:43:59;;;;;;;0.60;0.40;;;8.60;99.90;;;;;;5076394;28;20203;-75
2021/01/19 10:46:27;;;;;;;2.03;0.60;;;8.60;99.90;;;;;;5076735;28;20243;-76
2021/01/19 10:49:06;;;;;;;2.10;0.97;;;8.60;99.90;;;;;;5076619;28;20223;-84
2021/01/19 10:51:33;;;;;;;0.93;0.80;;;8.70;99.90;;;;;;5076776;28;20203;-70
2021/01/19 10:54:12;;;;;;;0.67;0.60;;;8.70;99.90;;;;;;5076667;28;20203;-70
2021/01/19 10:56:40;;;;;;;2.97;0.60;;;8.70;99.90;;;;;;5076377;28;20207;-77
2021/01/19 10:59:07;;;;;;;0.93;0.57;;;8.70;99.90;;;;;;5076446;28;20724;-72
2021/01/19 11:01:34;;;;;;;1.63;0.67;;;8.80;99.90;;;;;;5071670;28;20252;-72
2021/01/19 11:04:01;;;;;;;6.03;0.80;;;8.80;99.90;;;;;;5055053;28;20210;-72
2021/01/19 11:06:32;;;;;;;1.50;0.60;;;8.90;99.90;;;;;;5055242;28;20207;-73
2021/01/19 11:08:59;;;;;;;0.67;0.60;;;8.80;99.90;;;;;;5055629;28;20232;-72
2021/01/19 11:11:26;;;;;;;1.00;0.70;;;8.90;99.90;;;;;;5055250;28;20562;-76
2021/01/19 11:13:53;;;;;;;0.70;0.43;;;8.80;99.90;;;;;;5075386;28;20230;-73
2021/01/19 11:16:20;;;;;;;0.73;0.60;;;8.90;99.90;;;;;;5075514;28;20668;-77
2021/01/19 11:18:46;;;;;;;2.47;0.77;;;8.80;99.90;;;;;;5075483;28;20239;-74
2021/01/19 11:21:12;;;;;;;1.40;0.63;;;8.80;99.90;;;;;;5075638;28;20227;-73
2021/01/19 11:23:40;;;;;;;1.20;0.63;;;8.90;99.90;;;;;;5074812;28;20561;-73
2021/01/19 11:26:06;;;;;;;1.97;0.70;;;8.90;99.90;;;;;;5075406;28;20199;-73
2021/01/19 11:28:32;;;;;;;1.43;0.70;;;8.90;99.90;;;;;;5075335;28;20200;-72
2021/01/19 11:30:59;;;;;;;0.90;0.67;;;8.90;99.90;;;;;;5075572;28;20662;-73
2021/01/19 11:33:25;;;;;;;0.83;0.60;;;8.80;99.90;;;;;;5075020;28;20661;-73
2021/01/19 11:35:51;;;;;;;1.73;0.63;;;8.80;99.90;;;;;;5075007;28;20210;-75
2021/01/19 11:38:17;;;;;;;1.23;0.80;;;8.70;99.90;;;;;;5075171;28;20238;-73
2021/01/19 11:40:47;;;;;;;1.07;0.73;;;8.70;99.90;;;;;;5074449;28;20266;-73
2021/01/19 11:43:14;;;;;;;1.80;0.70;;;8.70;99.90;;;;;;5075381;28;20301;-78
2021/01/19 11:45:40;;;;;;;1.00;0.70;;;8.70;99.90;;;;;;5075580;28;20203;-73
2021/01/19 11:48:07;;;;;;;1.03;0.80;;;8.70;99.90;;;;;;5074628;28;20621;-74
2021/01/19 11:50:33;;;;;;;0.90;0.80;;;8.60;99.90;;;;;;5075117;28;20231;-72
2021/01/19 11:52:59;;;;;;;1.20;0.90;;;8.60;99.90;;;;;;5074458;28;20222;-73
2021/01/19 11:55:25;;;;;;;1.27;0.60;;;8.60;99.90;;;;;;5075349;28;20230;-73
2021/01/19 11:57:52;;;;;;;1.87;0.70;;;8.70;99.90;;;;;;5074924;28;20701;-72
2021/01/19 12:00:19;;;;;;;1.00;0.73;;;8.60;99.90;;;;;;5074316;28;20664;-72
2021/01/19 12:02:45;;;;;;;1.70;1.00;;;8.60;99.90;;;;;;5074272;28;20601;-72
2021/01/19 12:05:13;;;;;;;1.00;0.70;;;8.70;99.90;;;;;;5074298;28;20207;-76
2021/01/19 12:07:40;;;;;;;3.70;1.03;;;8.70;99.90;;;;;;5074375;28;20273;-74
2021/01/19 12:10:08;;;;;;;1.07;0.93;;;8.70;99.90;;;;;;5074357;28;20223;-73
2021/01/19 12:12:35;;;;;;;1.73;0.83;;;8.60;99.90;;;;;;5073875;28;20203;-74
2021/01/19 12:15:04;;;;;;;2.33;1.10;;;8.60;99.90;;;;;;5075419;28;20265;-75
2021/01/19 12:17:30;;;;;;;1.57;1.10;;;8.60;99.90;;;;;;5074300;28;20257;-73
2021/01/19 12:19:56;;;;;;;1.20;0.90;;;8.70;99.90;;;;;;5074427;28;20558;-73
2021/01/19 12:22:23;;;;;;;1.40;1.10;;;8.70;99.90;;;;;;5074411;28;20207;-77
2021/01/19 12:24:49;;;;;;;1.57;1.03;;;8.80;99.90;;;;;;5073895;28;20257;-73
2021/01/19 12:27:15;;;;;;;0.80;0.70;;;8.80;99.90;;;;;;5074499;28;20204;-73
2021/01/19 12:29:41;;;;;;;1.13;0.90;;;8.80;99.90;;;;;;5074238;28;20223;-73
2021/01/19 12:32:11;;;;;;;1.27;0.80;;;8.90;99.90;;;;;;5074112;28;20200;-79
2021/01/19 12:34:38;;;;;;;2.40;1.10;;;9.00;99.90;;;;;;5074088;28;20295;-72
2021/01/19 12:37:05;;;;;;;0.80;0.80;;;9.00;99.90;;;;;;5074045;28;20240;-75
2021/01/19 12:39:31;;;;;;;4.17;0.90;;;9.10;99.90;;;;;;5073799;28;20230;-71
2021/01/19 12:41:58;;;;;;;1.53;0.80;;;9.10;99.90;;;;;;5073911;28;20287;-72
2021/01/19 12:44:25;;;;;;;1.30;0.93;;;9.10;99.90;;;;;;5074157;28;20203;-74
2021/01/19 12:46:51;;;;;;;2.30;1.27;;;9.10;99.90;;;;;;5073962;28;20203;-73
2021/01/19 12:49:18;;;;;;;1.30;0.97;;;9.00;99.90;;;;;;5073205;28;20716;-72
2021/01/19 12:51:44;;;;;;;1.50;1.10;;;9.10;99.90;;;;;;5072718;28;20207;-72
2021/01/19 12:54:11;;;;;;;3.33;1.10;;;9.10;99.90;;;;;;5073208;28;20204;-71
2021/01/19 12:56:38;;;;;;;1.90;1.10;;;9.10;99.90;;;;;;5073877;28;20207;-71
2021/01/19 12:59:04;;;;;;;1.50;1.00;;;9.10;99.90;;;;;;5073518;28;20296;-71
2021/01/19 13:01:30;;;;;;;1.20;1.00;;;9.20;99.90;;;;;;5073144;28;20212;-71
2021/01/19 13:03:57;;;;;;;1.53;1.07;;;9.20;99.90;;;;;;5074097;28;20214;-71
2021/01/19 13:06:24;;;;;;;5.27;1.50;;;9.20;99.90;;;;;;5073703;28;20199;-72
2021/01/19 13:08:50;;;;;;;2.67;1.30;;;9.20;99.90;;;;;;5073060;28;20223;-72
2021/01/19 13:11:16;;;;;;;2.37;1.00;;;9.10;99.90;;;;;;5074092;28;20211;-73
2021/01/19 13:13:42;;;;;;;1.53;1.20;;;9.20;99.90;;;;;;5072600;28;20596;-72
2021/01/19 13:16:09;;;;;;;1.43;1.03;;;9.10;99.90;;;;;;5074005;28;20207;-71
2021/01/19 13:18:35;;;;;;;1.67;1.13;;;9.10;99.90;;;;;;5073456;28;20281;-73
2021/01/19 13:21:02;;;;;;;4.67;1.47;;;9.10;99.90;;;;;;5063470;28;20196;-78
2021/01/19 13:23:29;;;;;;;3.63;1.40;;;9.20;99.90;;;;;;5050176;28;20211;-72
2021/01/19 13:25:55;;;;;;;2.50;1.47;;;9.20;99.90;;;;;;5051789;28;20212;-72
2021/01/19 13:28:22;;;;;;;3.30;1.50;;;9.20;99.90;;;;;;5051760;28;20266;-72
2021/01/19 13:30:48;;;;;;;2.00;1.23;;;9.20;99.90;;;;;;5055110;28;20215;-74
2021/01/19 13:33:14;;;;;;;3.23;1.50;;;9.10;99.90;;;;;;5072317;28;20199;-72
2021/01/19 13:35:41;;;;;;;3.73;1.30;;;9.10;99.90;;;;;;5071800;28;20223;-72
2021/01/19 13:38:07;;;;;;;2.43;1.33;;;9.10;99.90;;;;;;5071735;28;20724;-74
2021/01/19 13:40:34;;;;;;;2.73;1.53;;;9.20;99.90;;;;;;5072183;28;20220;-73
2021/01/19 13:43:01;;;;;;;2.50;1.70;;;9.20;99.90;;;;;;5071287;28;20211;-74
2021/01/19 13:45:27;;;;;;;5.70;1.50;;;9.10;99.90;;;;;;5071766;28;20689;-72
2021/01/19 13:47:53;;;;;;;3.03;1.53;;;9.10;99.90;;;;;;5072037;28;20211;-71
2021/01/19 13:50:20;;;;;;;1.67;1.30;;;9.10;99.90;;;;;;5071608;28;20231;-74
2021/01/19 13:52:47;;;;;;;2.93;1.47;;;9.10;99.90;;;;;;5071882;28;20261;-73
2021/01/19 13:55:14;;;;;;;1.70;1.33;;;9.10;99.90;;;;;;5072989;28;20566;-74
2021/01/19 13:57:41;;;;;;;2.77;1.50;;;9.10;99.90;;;;;;5072725;28;20677;-73
2021/01/19 14:00:08;;;;;;;2.63;1.37;;;9.10;99.90;;;;;;5072727;28;20727;-73
2021/01/19 14:02:34;;;;;;;1.67;1.33;;;9.20;99.90;;;;;;5072475;28;20566;-72
2021/01/19 14:05:00;;;;;;;1.73;1.23;;;9.20;99.90;;;;;;5072852;28;20210;-74
2021/01/19 14:07:27;;;;;;;1.80;1.20;;;9.10;99.90;;;;;;5073198;28;20202;-71
2021/01/19 14:09:53;;;;;;;2.17;1.37;;;9.10;99.90;;;;;;5072560;28;20230;-73
2021/01/19 14:12:19;;;;;;;1.70;1.30;;;9.10;99.90;;;;;;5072738;28;20207;-73
2021/01/19 14:14:46;;;;;;;2.60;1.20;;;9.10;99.90;;;;;;5072525;28;20669;-74
2021/01/19 14:17:12;;;;;;;4.53;1.10;;;9.10;99.90;;;;;;5072990;28;20550;-74
2021/01/19 14:19:39;;;;;;;1.80;1.23;;;9.10;99.90;;;;;;5072704;28;20235;-73
2021/01/19 14:22:05;;;;;;;1.53;1.10;;;9.00;99.90;;;;;;5072580;28;20200;-72
2021/01/19 14:24:31;;;;;;;2.27;1.30;;;8.80;99.90;;;;;;5072716;28;20670;-74
2021/01/19 14:26:57;;;;;;;1.93;1.20;;;8.80;99.90;;;;;;5072550;28;20207;-73
2021/01/19 14:29:24;;;;;;;1.63;1.20;;;8.80;99.90;;;;;;5072412;28;20227;-72
2021/01/19 14:31:51;;;;;;;2.97;1.53;;;8.80;99.90;;;;;;5072987;28;20203;-75
2021/01/19 14:34:19;;;;;;;2.57;1.47;;;8.80;99.90;;;;;;5072484;28;20207;-73
2021/01/19 14:36:46;;;;;;;1.67;1.20;;;8.80;99.90;;;;;;5073018;28;20653;-73
2021/01/19 14:39:12;;;;;;;1.97;1.40;;;8.70;99.90;;;;;;5072486;28;20235;-72
2021/01/19 14:41:40;;;;;;;1.67;1.30;;;8.70;99.90;;;;;;5072379;28;20208;-72
2021/01/19 14:44:07;;;;;;;2.23;1.60;;;8.70;99.90;;;;;;5072539;28;20207;-73
2021/01/19 14:46:34;;;;;;;3.43;1.73;;;8.70;99.90;;;;;;5072413;28;20207;-73
2021/01/19 14:49:04;;;;;;;4.20;1.27;;;8.80;99.90;;;;;;5073059;28;20231;-72
2021/01/19 14:51:30;;;;;;;2.00;1.20;;;8.80;99.90;;;;;;5072391;28;20283;-72
2021/01/19 14:53:56;;;;;;;2.30;1.30;;;8.90;99.90;;;;;;5072428;28;20203;-71
2021/01/19 14:56:30;;;;;;;3.23;1.37;;;8.90;99.90;;;;;;5072658;28;20210;-75
2021/01/19 14:58:56;;;;;;;1.90;1.10;;;9.00;99.90;;;;;;5072213;28;20303;-71
2021/01/19 15:01:34;;;;;;;4.70;1.43;;;9.00;99.90;;;;;;5072348;28;20204;-71
2021/01/19 15:04:01;;;;;;;2.17;1.20;;;9.00;99.90;;;;;;5072369;28;20202;-74
2021/01/19 15:06:27;;;;;;;2.47;1.07;;;9.00;99.90;;;;;;5072478;28;20203;-74
2021/01/19 15:08:53;;;;;;;2.30;1.13;;;9.00;99.90;;;;;;5071914;28;20701;-74
2021/01/19 15:11:20;;;;;;;1.83;1.07;;;9.00;99.90;;;;;;5072575;28;20199;-71
2021/01/19 15:13:46;;;;;;;1.83;1.13;;;9.00;99.90;;;;;;5072492;28;20210;-72
2021/01/19 15:16:12;;;;;;;1.03;0.90;;;9.00;99.90;;;;;;5075578;28;20204;-74
2021/01/19 15:18:38;;;;;;;2.83;1.10;;;8.90;99.90;;;;;;5075438;28;20728;-75
2021/01/19 15:21:06;;;;;;;1.60;1.10;;;8.90;99.90;;;;;;5075645;28;20203;-73
2021/01/19 15:23:33;;;;;;;2.20;1.20;;;8.90;99.90;;;;;;5075628;28;20234;-73
2021/01/19 15:25:59;;;;;;;1.40;1.00;;;8.80;99.90;;;;;;5075916;28;20208;-74
2021/01/19 15:28:25;;;;;;;1.83;1.10;;;8.70;99.90;;;;;;5075527;28;20246;-71
2021/01/19 15:30:51;;;;;;;2.80;1.50;;;8.70;99.90;;;;;;5075804;28;20207;-73
2021/01/19 15:33:17;;;;;;;2.30;1.57;;;8.70;99.90;;;;;;5075445;28;20207;-74
2021/01/19 15:35:44;;;;;;;3.10;1.20;;;8.70;99.90;;;;;;5075292;28;20210;-74
2021/01/19 15:38:11;;;;;;;1.53;1.10;;;8.70;99.90;;;;;;5075155;28;20223;-73
2021/01/19 15:40:37;;;;;;;2.87;1.37;;;8.60;99.90;;;;;;5075342;28;20230;-71
2021/01/19 15:43:03;;;;;;;2.43;1.40;;;8.60;99.90;;;;;;5075121;28;20211;-72
2021/01/19 15:45:29;;;;;;;1.97;0.90;;;8.50;99.90;;;;;;5075499;28;20214;-71
2021/01/19 15:47:56;;;;;;;2.10;1.13;;;8.50;99.90;;;;;;5075461;28;20203;-70
2021/01/19 15:50:22;;;;;;;2.00;1.30;;;8.50;99.90;;;;;;5075487;28;20281;-71
2021/01/19 15:52:50;;;;;;;2.90;1.40;;;8.60;99.90;;;;;;5066227;28;20223;-72
2021/01/19 15:55:17;;;;;;;4.03;1.53;;;8.60;99.90;;;;;;5053685;28;20266;-71
2021/01/19 15:57:43;;;;;;;3.50;1.40;;;8.60;99.90;;;;;;5055105;28;20211;-71
2021/01/19 16:00:10;;;;;;;3.10;1.30;;;8.50;99.90;;;;;;5054985;28;20228;-67
2021/01/19 16:02:37;;;;;;;2.50;1.63;;;8.50;99.90;;;;;;5054671;28;20207;-70
2021/01/19 16:05:04;;;;;;;2.70;1.73;;;8.50;99.90;;;;;;5054857;28;20204;-71
2021/01/19 16:07:32;;;;;;;1.90;1.43;;;8.50;99.90;;;;;;5054888;28;20208;-71
2021/01/19 16:09:59;;;;;;;2.63;1.60;;;8.50;99.90;;;;;;5054979;28;20240;-71
2021/01/19 16:12:26;;;;;;;3.53;1.63;;;8.50;99.90;;;;;;5055147;28;20214;-68
2021/01/19 16:14:52;;;;;;;4.30;1.93;;;8.50;99.90;;;;;;5054961;28;20208;-71
2021/01/19 16:17:20;;;;;;;2.60;1.70;;;8.40;99.90;;;;;;5054879;28;20319;-72
2021/01/19 16:19:48;;;;;;;4.30;2.10;;;8.40;99.90;;;;;;5054654;28;20631;-67
2021/01/19 16:22:14;;;;;;;3.10;2.00;;;8.40;99.90;;;;;;5054810;28;20215;-71
2021/01/19 16:24:41;;;;;;;5.87;2.30;;;8.30;99.90;;;;;;5054629;28;20299;-70
2021/01/19 16:27:08;;;;;;;5.47;2.03;;;8.30;99.90;;;;;;5057143;28;20204;-67
2021/01/19 16:29:35;;;;;;;4.50;2.30;;;8.30;99.90;;;;;;5060980;28;20617;-70
2021/01/19 16:32:03;;;;;;;4.50;1.83;;;8.20;99.90;;;;;;5064955;28;20200;-70
2021/01/19 16:34:29;;;;;;;5.23;2.10;;;8.10;99.90;;;;;;5055743;28;20195;-68
2021/01/19 16:36:56;;;;;;;3.03;1.90;;;8.00;99.90;;;;;;5057802;28;20262;-69
2021/01/19 16:39:22;;;;;;;2.97;1.90;;;8.00;99.90;;;;;;5068114;28;20720;-68
2021/01/19 16:41:48;;;;;;;4.17;1.97;;;8.00;99.90;;;;;;5065645;28;20204;-69
2021/01/19 16:44:16;;;;;;;3.63;1.87;;;8.00;99.90;;;;;;5069214;28;20218;-68
2021/01/19 16:46:50;;;;;;;3.40;2.00;;;8.00;99.90;;;;;;5066257;28;20208;-67
2021/01/19 16:49:17;;;;;;;3.23;1.73;;;8.00;99.90;;;;;;5063234;28;20704;-69
2021/01/19 16:51:43;;;;;;;4.53;2.13;;;7.90;99.90;;;;;;5056078;28;20563;-68
2021/01/19 16:54:09;;;;;;;3.67;2.30;;;7.90;99.90;;;;;;5070529;28;20199;-69
2021/01/19 16:56:36;;;;;;;3.07;2.20;;;7.90;99.90;;;;;;5060055;28;20199;-70
2021/01/19 16:59:04;;;;;;;3.83;2.30;;;7.90;99.90;;;;;;5062147;28;20235;-70
2021/01/19 17:01:30;;;;;;;3.17;2.10;;;7.90;99.90;;;;;;5058441;28;20215;-70
2021/01/19 17:03:57;;;;;;;4.97;2.37;;;7.90;99.90;;;;;;5067559;28;20214;-67
2021/01/19 17:06:25;;;;;;;2.97;1.80;;;7.90;99.90;;;;;;5070997;28;20265;-67
2021/01/19 17:08:52;;;;;;;6.27;2.33;;;8.00;99.90;;;;;;5067316;28;20297;-69
2021/01/19 17:11:18;;;;;;;3.60;2.47;;;7.90;99.90;;;;;;5061903;28;20207;-67
2021/01/19 17:13:45;;;;;;;4.80;2.33;;;7.80;99.90;;;;;;5060401;28;20272;-68
2021/01/19 17:16:13;;;;;;;5.00;2.83;;;7.80;99.90;;;;;;5065615;28;20212;-68
2021/01/19 17:18:40;;;;;;;7.37;2.57;;;7.80;99.90;;;;;;5069796;28;20234;-68
2021/01/19 17:21:07;;;;;;;3.13;1.97;;;7.70;99.90;;;;;;5062587;28;20208;-67
2021/01/19 17:23:33;;;;;;;4.90;2.20;;;7.70;99.90;;;;;;5069266;28;20268;-67
2021/01/19 17:26:00;;;;;;;6.00;2.33;;;7.70;99.90;;;;;;5068168;28;20207;-67
2021/01/19 17:28:27;;;;;;;5.60;2.20;;;7.70;99.90;;;;;;5056512;28;20203;-68
2021/01/19 17:30:53;;;;;;;8.40;2.13;;;7.70;99.90;;;;;;5060141;28;20200;-67
2021/01/19 17:33:21;;;;;;;5.70;2.53;;;7.70;99.90;;;;;;5065583;28;20208;-67
2021/01/19 17:35:48;;;;;;;5.00;2.50;;;7.70;99.90;;;;;;5063755;28;20202;-67
2021/01/19 17:38:15;;;;;;;6.27;2.27;;;7.70;99.90;;;;;;5071176;28;20704;-68
2021/01/19 17:40:41;;;;;;;3.83;2.70;;;7.60;99.90;;;;;;5071156;28;20227;-67
2021/01/19 17:43:08;;;;;;;3.03;2.00;;;7.60;99.90;;;;;;5056411;28;20207;-66
2021/01/19 17:45:35;;;;;;;6.20;3.17;;;7.60;99.90;;;;;;5062233;28;20196;-69
2021/01/19 17:48:01;;;;;;;5.30;2.30;;;7.60;99.90;;;;;;5057866;28;20203;-67
2021/01/19 17:50:27;;;;;;;7.30;2.57;;;7.50;99.90;;;;;;5060289;28;20234;-70
2021/01/19 17:52:53;;;;;;;6.33;2.40;;;7.50;99.90;;;;;;5061222;28;20262;-69
2021/01/19 17:55:21;;;;;;;5.60;2.40;;;7.50;99.90;;;;;;5060482;28;20195;-68
2021/01/19 17:57:48;;;;;;;6.53;2.77;;;7.60;99.90;;;;;;5057194;28;20219;-67
2021/01/19 18:00:16;;;;;;;5.93;2.90;;;7.50;99.90;;;;;;5061134;28;20273;-68
2021/01/19 18:02:46;;;;;;;6.90;3.23;;;7.40;99.90;;;;;;5062108;28;20203;-68
2021/01/19 18:05:13;;;;;;;7.43;3.53;;;7.40;99.90;;;;;;5071860;28;20557;-68
2021/01/19 18:07:39;;;;;;;8.30;3.33;;;7.40;99.90;;;;;;5071402;28;20265;-69
2021/01/19 18:10:06;;;;;;;12.40;4.27;;;7.50;99.90;;;;;;5071209;28;20234;-70
2021/01/19 18:12:33;;;;;;;6.43;3.43;;;7.50;99.90;;;;;;5070734;28;20199;-68
2021/01/19 18:15:00;;;;;;;9.73;4.27;;;7.40;99.90;;;;;;5071152;28;20203;-72
2021/01/19 18:17:27;;;;;;;6.33;3.30;;;7.50;99.90;;;;;;5058159;28;20208;-73
2021/01/19 18:19:53;;;;;;;8.07;3.37;;;7.40;99.90;;;;;;5051112;28;20243;-72
2021/01/19 18:22:20;;;;;;;9.17;4.00;;;7.40;99.90;;;;;;5059284;28;20287;-71
2021/01/19 18:24:48;;;;;;;6.37;3.23;;;7.30;99.90;;;;;;5071554;28;20203;-72
2021/01/19 18:27:14;;;;;;;7.00;3.20;;;7.20;99.90;;;;;;5070144;28;20215;-72
2021/01/19 18:29:42;;;;;;;6.80;3.30;;;7.20;99.90;;;;;;5070090;28;20875;-72
2021/01/19 18:32:08;;;;;;;3.97;2.67;;;7.20;99.90;;;;;;5071315;28;20207;-72
2021/01/19 18:34:35;;;;;;;7.40;2.77;;;7.30;99.90;;;;;;5072092;28;20199;-72
2021/01/19 18:37:04;;;;;;;6.47;3.30;;;7.30;99.90;;;;;;5071214;28;20565;-73
2021/01/19 18:39:36;;;;;;;4.53;3.00;;;7.30;99.90;;;;;;5071826;28;20235;-72
2021/01/19 18:42:03;;;;;;;6.47;3.00;;;7.30;99.90;;;;;;5071426;28;20242;-74
2021/01/19 18:44:30;;;;;;;4.40;2.73;;;7.30;99.90;;;;;;5072081;28;20200;-73
2021/01/19 18:46:57;;;;;;;4.93;3.17;;;7.30;99.90;;;;;;5072390;28;20203;-73
2021/01/19 18:49:23;;;;;;;4.67;3.07;;;7.20;99.90;;;;;;5074448;28;20227;-72
2021/01/19 18:51:54;;;;;;;4.73;2.97;;;7.20;99.90;;;;;;5076189;28;20219;-72
2021/01/19 18:54:21;;;;;;;6.37;3.13;;;7.20;99.90;;;;;;5075415;28;20591;-72
2021/01/19 18:56:47;;;;;;;8.63;3.27;;;7.20;99.90;;;;;;5075610;28;20196;-73
2021/01/19 18:59:14;;;;;;;6.97;3.37;;;7.10;99.90;;;;;;5075189;28;20231;-73
2021/01/19 19:01:42;;;;;;;6.90;2.67;;;7.10;99.90;;;;;;5066390;28;20202;-72
2021/01/19 19:04:09;;;;;;;5.93;3.07;;;7.10;99.90;;;;;;5065512;28;20200;-72
2021/01/19 19:06:36;;;;;;;4.60;2.33;;;7.00;99.90;;;;;;5066445;28;20278;-72
2021/01/19 19:09:03;;;;;;;7.40;2.87;;;7.00;99.90;;;;;;5065304;28;20224;-72
2021/01/19 19:11:31;;;;;;;6.90;2.83;;;7.10;99.90;;;;;;5069306;28;20207;-72
2021/01/19 19:13:57;;;;;;;4.77;3.23;;;7.10;99.90;;;;;;5073103;28;20257;-72
2021/01/19 19:16:30;;;;;;;6.13;3.07;;;7.10;99.90;;;;;;5069814;28;20210;-72
2021/01/19 19:18:57;;;;;;;6.40;2.90;;;7.10;99.90;;;;;;5074114;28;20227;-72
2021/01/19 19:21:25;;;;;;;6.47;3.37;;;7.20;99.90;;;;;;5075198;28;20195;-72
2021/01/19 19:23:51;;;;;;;8.83;2.83;;;7.20;99.90;;;;;;5075218;28;20203;-72
2021/01/19 19:26:18;;;;;;;5.77;2.47;;;7.20;99.90;;;;;;5075231;28;20204;-72
2021/01/19 19:28:44;;;;;;;5.43;2.60;;;7.10;99.90;;;;;;5075044;28;20199;-72
2021/01/19 19:31:11;;;;;;;3.60;2.20;;;7.20;99.90;;;;;;5075114;28;20196;-72
2021/01/19 19:33:38;;;;;;;5.40;2.90;;;7.20;99.90;;;;;;5075340;28;20200;-73
2021/01/19 19:36:05;;;;;;;4.90;2.67;;;7.30;99.90;;;;;;5075075;28;20562;-72
2021/01/19 19:38:32;;;;;;;5.40;2.70;;;7.30;99.90;;;;;;5070720;28;20227;-73
2021/01/19 19:41:01;;;;;;;6.80;2.23;;;7.20;99.90;;;;;;5074950;28;20195;-72
2021/01/19 19:43:27;;;;;;;4.27;2.10;;;7.20;99.90;;;;;;5072093;28;20195;-72
2021/01/19 19:45:54;;;;;;;5.10;2.03;;;7.10;99.90;;;;;;5073817;28;20206;-73
2021/01/19 19:48:20;;;;;;;4.63;2.43;;;7.10;99.90;;;;;;5074272;28;20546;-73
2021/01/19 19:50:46;;;;;;;3.33;2.27;;;7.10;99.90;;;;;;5074578;28;20277;-72
2021/01/19 19:53:12;;;;;;;5.77;2.53;;;7.10;99.90;;;;;;5074105;28;20612;-72
2021/01/19 19:55:40;;;;;;;5.13;2.40;;;7.00;99.90;;;;;;5074615;28;20214;-72
2021/01/19 19:58:06;;;;;;;6.67;2.33;;;7.00;99.90;;;;;;5073995;28;20199;-72
2021/01/19 20:00:32;;;;;;;4.20;2.67;;;7.10;99.90;;;;;;5072419;28;20219;-72
2021/01/19 20:02:58;;;;;;;3.97;2.33;;;7.10;99.90;;;;;;5068282;28;20215;-72
2021/01/19 20:05:25;;;;;;;4.43;2.67;;;7.20;99.90;;;;;;5054340;28;20708;-72
2021/01/19 20:07:51;;;;;;;4.63;2.70;;;7.20;99.90;;;;;;5053176;28;20204;-72
2021/01/19 20:10:17;;;;;;;7.63;2.53;;;7.20;99.90;;;;;;5053361;28;20220;-73
2021/01/19 20:12:44;;;;;;;5.63;3.30;;;7.20;99.90;;;;;;5054072;28;20689;-72
2021/01/19 20:15:13;;;;;;;5.97;2.83;;;7.30;99.90;;;;;;5055039;28;20204;-72
2021/01/19 20:17:39;;;;;;;5.77;2.33;;;7.20;99.90;;;;;;5055258;28;20200;-73
2021/01/19 20:20:06;;;;;;;5.90;2.60;;;7.20;99.90;;;;;;5054768;28;20235;-72
2021/01/19 20:22:32;;;;;;;4.40;2.40;;;7.20;99.90;;;;;;5054531;28;20663;-72
2021/01/19 20:24:59;;;;;;;5.90;2.90;;;7.20;99.90;;;;;;5054660;28;20208;-72
2021/01/19 20:27:25;;;;;;;4.03;2.57;;;7.20;99.90;;;;;;5054592;28;20211;-72
2021/01/19 20:29:52;;;;;;;3.97;2.47;;;7.20;99.90;;;;;;5058776;28;20231;-73
2021/01/19 20:32:18;;;;;;;7.17;3.63;;;7.20;99.90;;;;;;5074865;28;20207;-73
2021/01/19 20:34:44;;;;;;;4.33;2.50;;;7.20;99.90;;;;;;5073757;28;20208;-72
2021/01/19 20:37:11;;;;;;;7.20;2.60;;;7.20;99.90;;;;;;5073486;28;20204;-72
2021/01/19 20:39:37;;;;;;;5.60;2.90;;;7.30;99.90;;;;;;5073681;28;20235;-72
2021/01/19 20:42:04;;;;;;;6.60;3.27;;;7.30;99.90;;;;;;5074316;28;20211;-72
2021/01/19 20:44:31;;;;;;;4.00;2.23;;;7.40;99.90;;;;;;5074423;28;20199;-72
2021/01/19 20:47:02;;;;;;;5.03;2.90;;;7.40;99.90;;;;;;5074578;28;20199;-72
2021/01/19 20:49:28;;;;;;;4.80;3.13;;;7.30;99.90;;;;;;5075264;28;20223;-72
2021/01/19 20:51:54;;;;;;;4.40;2.83;;;7.30;99.90;;;;;;5074356;28;20215;-72
2021/01/19 20:54:21;;;;;;;5.63;2.70;;;7.30;99.90;;;;;;5074228;28;20203;-72
2021/01/19 20:56:47;;;;;;;5.93;2.83;;;7.40;99.90;;;;;;5071519;28;20199;-71
2021/01/19 20:59:16;;;;;;;5.30;2.83;;;7.40;99.90;;;;;;5073724;28;20716;-72
2021/01/19 21:01:43;;;;;;;6.80;2.77;;;7.40;99.90;;;;;;5073697;28;20199;-72
2021/01/19 21:04:10;;;;;;;6.07;2.60;;;7.30;99.90;;;;;;5073225;28;20199;-73
2021/01/19 21:06:36;;;;;;;4.10;2.67;;;7.30;99.90;;;;;;5068170;28;20207;-69
2021/01/19 21:09:03;;;;;;;5.53;3.10;;;7.30;99.90;;;;;;5064177;28;20264;-69
2021/01/19 21:11:29;;;;;;;3.63;2.40;;;7.40;99.90;;;;;;5072594;28;20203;-70
2021/01/19 21:13:56;;;;;;;4.30;2.63;;;7.30;99.90;;;;;;5073258;28;20206;-69
2021/01/19 21:16:23;;;;;;;7.00;2.80;;;7.30;99.90;;;;;;5073686;28;20195;-70
2021/01/19 21:18:51;;;;;;;5.77;2.80;;;7.40;99.90;;;;;;5074041;28;20235;-70
2021/01/19 21:21:18;;;;;;;5.10;2.80;;;7.40;99.90;;;;;;5070622;28;20207;-69
2021/01/19 21:23:44;;;;;;;7.93;2.83;;;7.40;99.90;;;;;;5073020;28;20203;-69
2021/01/19 21:26:13;;;;;;;5.70;2.57;;;7.50;99.90;;;;;;5072699;28;20230;-69
2021/01/19 21:28:39;;;;;;;5.17;2.70;;;7.40;99.90;;;;;;5072878;28;20203;-70
2021/01/19 21:31:06;;;;;;;5.17;2.03;;;7.40;99.90;;;;;;5073340;28;20199;-70
2021/01/19 21:33:32;;;;;;;7.80;3.20;;;7.40;99.90;;;;;;5073401;28;20218;-69
2021/01/19 21:35:59;;;;;;;4.87;2.63;;;7.40;99.90;;;;;;5073063;28;20214;-69
2021/01/19 21:38:26;;;;;;;4.50;2.63;;;7.30;99.90;;;;;;5072776;28;20206;-70
2021/01/19 21:40:52;;;;;;;5.30;2.63;;;7.30;99.90;;;;;;5073494;28;20203;-69
2021/01/19 21:43:18;;;;;;;6.73;3.40;;;7.30;99.90;;;;;;5073347;28;20203;-70
2021/01/19 21:45:45;;;;;;;5.37;2.90;;;7.20;99.90;;;;;;5073313;28;20264;-70
2021/01/19 21:48:11;;;;;;;4.97;2.60;;;7.20;99.90;;;;;;5070700;28;20628;-69